Time;durP1;ratioP1;P1;durP2;ratioP2;P2;SDS_P1;SDS_P2;PMS_P1;PMS_P2;Temp;Humidity;BMP_temperature;BMP_pressure;BME280_temperature;BME280_humidity;BME280_pressure;Samples;Min_cycle;Max_cycle;Signal;HPM_P1;HPM_P2
2023/01/05 00:03:24;;;;;;;;;;;;;;;;;;5768152;23;19927;-94
2023/01/05 00:05:49;;;;;;;;;;;;;;;;;;4931753;29;19944;-94
2023/01/05 00:08:15;;;;;;;;;;;;;;;;;;4927240;29;20017;-95
2023/01/05 00:27:27;;;;;;;;;;;;;;;;;;5354079;23;19926;-92
2023/01/05 00:29:52;;;;;;;;;;;;;;;;;;4926576;28;19899;-91
2023/01/05 00:32:18;;;;;;;;;;;;;;;;;;5328621;23;19921;-90
2023/01/05 00:34:43;;;;;;;;;;;;;;;;;;4943896;29;20294;-91
2023/01/05 00:37:08;;;;;;;;;;;;;;;;;;4906765;29;20282;-90
2023/01/05 00:39:34;;;;;;;;;;;;;;;;;;4922883;29;19914;-93
2023/01/05 00:41:59;;;;;;;;;;;;;;;;;;4924730;29;20001;-92
2023/01/05 00:44:25;;;;;;;;;;;;;;;;;;4922964;29;20370;-91
2023/01/05 00:46:50;;;;;;;;;;;;;;;;;;4910060;29;19942;-92
2023/01/05 00:49:16;;;;;;;;;;;;;;;;;;5006901;23;19933;-90
2023/01/05 00:51:41;;;;;;;;;;;;;;;;;;4936114;29;19943;-90
2023/01/05 00:54:07;;;;;;;;;;;;;;;;;;4898682;29;19926;-89
2023/01/05 00:56:32;;;;;;;;;;;;;;;;;;4905279;29;20339;-89
2023/01/05 00:58:57;;;;;;;;;;;;;;;;;;4896530;29;19966;-88
2023/01/05 01:01:23;;;;;;;;;;;;;;;;;;4887652;29;19915;-90
2023/01/05 01:03:48;;;;;;;;;;;;;;;;;;4915549;28;19926;-86
2023/01/05 01:08:56;;;;;;;;;;;;;;;;;;5727459;23;19926;-91
2023/01/05 01:11:21;;;;;;;;;;;;;;;;;;4962218;28;19919;-88
2023/01/05 01:13:46;;;;;;;;;;;;;;;;;;4936122;29;19965;-90
2023/01/05 01:16:12;;;;;;;;;;;;;;;;;;4931707;29;19922;-93
2023/01/05 01:18:37;;;;;;;;;;;;;;;;;;4921505;29;19915;-91
2023/01/05 01:21:03;;;;;;;;;;;;;;;;;;4890960;29;19915;-92
2023/01/05 01:23:28;;;;;;;;;;;;;;;;;;4889956;29;19922;-92
2023/01/05 01:25:55;;;;;;;;;;;;;;;;;;4896596;29;20362;-91
2023/01/05 01:28:20;;;;;;;;;;;;;;;;;;4920729;29;19994;-92
2023/01/05 01:30:46;;;;;;;;;;;;;;;;;;4901041;29;19919;-91
2023/01/05 01:33:11;;;;;;;;;;;;;;;;;;4890069;29;20342;-91
2023/01/05 01:35:37;;;;;;;;;;;;;;;;;;4905853;29;19918;-92
2023/01/05 01:38:02;;;;;;;;;;;;;;;;;;4923712;29;19921;-92
2023/01/05 01:40:28;;;;;;;;;;;;;;;;;;4938126;28;20364;-89
2023/01/05 01:42:53;;;;;;;;;;;;;;;;;;4925019;29;19921;-92
2023/01/05 01:45:19;;;;;;;;;;;;;;;;;;4923129;29;19914;-91
2023/01/05 01:47:44;;;;;;;;;;;;;;;;;;4939110;29;19915;-92
2023/01/05 01:50:10;;;;;;;;;;;;;;;;;;4922560;29;19914;-92
2023/01/05 01:52:35;;;;;;;;;;;;;;;;;;4930262;29;20009;-92
2023/01/05 01:55:01;;;;;;;;;;;;;;;;;;4909797;29;19923;-91
2023/01/05 01:57:26;;;;;;;;;;;;;;;;;;4888985;29;19915;-92
2023/01/05 01:59:52;;;;;;;;;;;;;;;;;;4888143;29;19979;-91
2023/01/05 02:02:17;;;;;;;;;;;;;;;;;;4888981;29;20417;-91
2023/01/05 02:04:42;;;;;;;;;;;;;;;;;;4905336;29;19970;-92
2023/01/05 02:07:09;;;;;;;;;;;;;;;;;;4889218;29;20351;-92
2023/01/05 02:09:35;;;;;;;;;;;;;;;;;;4905415;29;19966;-90
2023/01/05 02:12:00;;;;;;;;;;;;;;;;;;4921329;29;20289;-92
2023/01/05 02:14:26;;;;;;;;;;;;;;;;;;4889630;29;19922;-93
2023/01/05 02:16:51;;;;;;;;;;;;;;;;;;4905739;29;20349;-90
2023/01/05 02:19:16;;;;;;;;;;;;;;;;;;4905108;29;19922;-92
2023/01/05 02:21:42;;;;;;;;;;;;;;;;;;4920228;29;20321;-91
2023/01/05 02:24:07;;;;;;;;;;;;;;;;;;4914100;28;19919;-88
2023/01/05 02:26:35;;;;;;;;;;;;;;;;;;4902783;29;19915;-89
2023/01/05 02:29:00;;;;;;;;;;;;;;;;;;4893830;29;20421;-91
2023/01/05 02:31:25;;;;;;;;;;;;;;;;;;4935480;29;19915;-94
2023/01/05 02:33:54;;;;;;;;;;;;;;;;;;4922228;29;19925;-93
2023/01/05 02:36:20;;;;;;;;;;;;;;;;;;4906949;29;19923;-93
2023/01/05 02:38:46;;;;;;;;;;;;;;;;;;4919927;29;19923;-93
2023/01/05 02:41:12;;;;;;;;;;;;;;;;;;4919626;29;19961;-92
2023/01/05 02:43:37;;;;;;;;;;;;;;;;;;4921027;29;20009;-92
2023/01/05 02:46:02;;;;;;;;;;;;;;;;;;4900419;29;20004;-92
2023/01/05 02:48:28;;;;;;;;;;;;;;;;;;4926534;29;19922;-92
2023/01/05 02:50:56;;;;;;;;;;;;;;;;;;4927305;29;19910;-92
2023/01/05 02:53:21;;;;;;;;;;;;;;;;;;4911473;29;20013;-92
2023/01/05 02:55:47;;;;;;;;;;;;;;;;;;4910279;29;20437;-92
2023/01/05 02:58:13;;;;;;;;;;;;;;;;;;4925889;29;19969;-92
2023/01/05 03:00:40;;;;;;;;;;;;;;;;;;4910971;29;19958;-93
2023/01/05 03:03:07;;;;;;;;;;;;;;;;;;4921943;29;20400;-93
2023/01/05 03:05:32;;;;;;;;;;;;;;;;;;4923213;29;19915;-92
2023/01/05 03:08:05;;;;;;;;;;;;;;;;;;4908235;29;20070;-88
2023/01/05 03:13:42;;;;;;;;;;;;;;;;;;4871202;29;19923;-93
2023/01/05 03:16:10;;;;;;;;;;;;;;;;;;4905036;29;19918;-92
2023/01/05 03:19:34;;;;;;;;;;;;;;;;;;4891780;29;19911;-91
2023/01/05 03:21:21;;;;;;;;;;;;;;;;;;4916597;29;19918;-92
2023/01/05 03:37:29;;;;;;;;;;;;;;;;;;4953400;29;19946;-90
2023/01/05 03:39:57;;;;;;;;;;;;;;;;;;4923590;29;19915;-92
2023/01/05 03:42:22;;;;;;;;;;;;;;;;;;4910567;29;20429;-93
2023/01/05 03:44:47;;;;;;;;;;;;;;;;;;4917358;29;20002;-91
2023/01/05 03:47:15;;;;;;;;;;;;;;;;;;4934200;29;19953;-92
2023/01/05 03:49:42;;;;;;;;;;;;;;;;;;4920540;29;19919;-92
2023/01/05 03:52:07;;;;;;;;;;;;;;;;;;4936629;29;19926;-90
2023/01/05 03:54:33;;;;;;;;;;;;;;;;;;4908156;29;19926;-93
2023/01/05 03:56:58;;;;;;;;;;;;;;;;;;4950892;28;19903;-93
2023/01/05 03:59:24;;;;;;;;;;;;;;;;;;4928052;29;19925;-91
2023/01/05 04:01:50;;;;;;;;;;;;;;;;;;4907808;29;19930;-91
2023/01/05 04:04:15;;;;;;;;;;;;;;;;;;4911336;29;19942;-93
2023/01/05 04:06:41;;;;;;;;;;;;;;;;;;4913217;29;19959;-92
2023/01/05 04:09:07;;;;;;;;;;;;;;;;;;4912125;29;19992;-93
2023/01/05 04:11:33;;;;;;;;;;;;;;;;;;4938804;28;19978;-93
2023/01/05 04:14:02;;;;;;;;;;;;;;;;;;4936561;29;19915;-91
2023/01/05 04:16:28;;;;;;;;;;;;;;;;;;4910130;29;19923;-93
2023/01/05 04:18:56;;;;;;;;;;;;;;;;;;4941871;29;19902;-92
2023/01/05 04:21:21;;;;;;;;;;;;;;;;;;4957228;29;19926;-91
2023/01/05 04:23:49;;;;;;;;;;;;;;;;;;4953503;29;19915;-93
2023/01/05 04:26:14;;;;;;;;;;;;;;;;;;4933190;29;19930;-92
2023/01/05 04:28:41;;;;;;;;;;;;;;;;;;4941129;29;19922;-92
2023/01/05 04:31:08;;;;;;;;;;;;;;;;;;4958679;28;19914;-92
2023/01/05 04:33:35;;;;;;;;;;;;;;;;;;4908232;29;20331;-95
2023/01/05 04:36:01;;;;;;;;;;;;;;;;;;4923050;29;19925;-92
2023/01/05 04:38:29;;;;;;;;;;;;;;;;;;4892232;29;19915;-92
2023/01/05 04:40:55;;;;;;;;;;;;;;;;;;4908080;29;20259;-93
2023/01/05 04:43:22;;;;;;;;;;;;;;;;;;4911674;29;20510;-90
2023/01/05 04:45:48;;;;;;;;;;;;;;;;;;4908849;29;19925;-89
2023/01/05 04:48:14;;;;;;;;;;;;;;;;;;4938039;29;19918;-90
2023/01/05 04:53:22;;;;;;;;;;;;;;;;;;5054875;23;19927;-91
2023/01/05 04:55:47;;;;;;;;;;;;;;;;;;4940788;29;20378;-92
2023/01/05 04:58:13;;;;;;;;;;;;;;;;;;4928709;29;19978;-91
2023/01/05 05:00:39;;;;;;;;;;;;;;;;;;4942339;29;19925;-89
2023/01/05 05:05:48;;;;;;;;;;;;;;;;;;5130904;23;19926;-91
2023/01/05 05:08:16;;;;;;;;;;;;;;;;;;4925941;28;19915;-87
2023/01/05 05:13:09;;;;;;;;;;;;;;;;;;4888619;29;19927;-92
2023/01/05 05:15:37;;;;;;;;;;;;;;;;;;4903622;29;20002;-91
2023/01/05 05:18:03;;;;;;;;;;;;;;;;;;4887225;29;19919;-93
2023/01/05 05:20:31;;;;;;;;;;;;;;;;;;4902423;29;19951;-94
2023/01/05 05:22:59;;;;;;;;;;;;;;;;;;4871459;29;20005;-94
2023/01/05 05:25:26;;;;;;;;;;;;;;;;;;4902603;29;19921;-94
2023/01/05 05:27:52;;;;;;;;;;;;;;;;;;4886580;29;19915;-93
2023/01/05 05:30:17;;;;;;;;;;;;;;;;;;4870997;29;20448;-95
2023/01/05 05:32:45;;;;;;;;;;;;;;;;;;4893695;29;19915;-94
2023/01/05 05:35:10;;;;;;;;;;;;;;;;;;4871274;29;20371;-93
2023/01/05 05:37:36;;;;;;;;;;;;;;;;;;4870805;29;19915;-93
2023/01/05 05:40:03;;;;;;;;;;;;;;;;;;4867043;29;22311;-93
2023/01/05 05:42:28;;;;;;;;;;;;;;;;;;4886680;29;19939;-93
2023/01/05 05:44:54;;;;;;;;;;;;;;;;;;4871083;29;19922;-91
2023/01/05 05:47:20;;;;;;;;;;;;;;;;;;4903454;29;19938;-93
2023/01/05 05:52:34;;;;;;;;;;;;;;;;;;5152953;23;19926;-93
2023/01/05 05:54:59;;;;;;;;;;;;;;;;;;4927201;29;20378;-94
2023/01/05 06:00:07;;;;;;;;;;;;;;;;;;5186852;23;20306;-93
2023/01/05 06:02:39;;;;;;;;;;;;;;;;;;4930051;29;19915;-91
2023/01/05 06:05:04;;;;;;;;;;;;;;;;;;4934688;29;19942;-92
2023/01/05 06:07:30;;;;;;;;;;;;;;;;;;4934718;29;19898;-92
2023/01/05 06:09:55;;;;;;;;;;;;;;;;;;4930564;29;19915;-92
2023/01/05 06:12:20;;;;;;;;;;;;;;;;;;4925148;29;19942;-91
2023/01/05 06:14:51;;;;;;;;;;;;;;;;;;4927911;29;20002;-91
2023/01/05 06:17:17;;;;;;;;;;;;;;;;;;4896523;29;20202;-93
2023/01/05 06:19:42;;;;;;;;;;;;;;;;;;4914874;29;20253;-91
2023/01/05 06:22:08;;;;;;;;;;;;;;;;;;4900006;29;19919;-92
2023/01/05 06:24:33;;;;;;;;;;;;;;;;;;4902108;28;19922;-90
2023/01/05 06:26:59;;;;;;;;;;;;;;;;;;4923528;29;19927;-90
2023/01/05 06:29:26;;;;;;;;;;;;;;;;;;4897170;29;19922;-93
2023/01/05 06:31:52;;;;;;;;;;;;;;;;;;4896358;29;19919;-91
2023/01/05 06:34:17;;;;;;;;;;;;;;;;;;4899197;29;19915;-90
2023/01/05 06:36:43;;;;;;;;;;;;;;;;;;4913521;28;19960;-91
2023/01/05 06:39:09;;;;;;;;;;;;;;;;;;4904948;29;19915;-91
2023/01/05 06:41:34;;;;;;;;;;;;;;;;;;4897961;29;19946;-92
2023/01/05 06:43:59;;;;;;;;;;;;;;;;;;5298242;23;19911;-87
2023/01/05 06:46:25;;;;;;;;;;;;;;;;;;5178530;23;19926;-92
2023/01/05 06:48:50;;;;;;;;;;;;;;;;;;4931229;29;20385;-92
2023/01/05 06:51:16;;;;;;;;;;;;;;;;;;4930899;29;19988;-90
2023/01/05 06:53:42;;;;;;;;;;;;;;;;;;5467933;23;19934;-92
2023/01/05 06:56:07;;;;;;;;;;;;;;;;;;4922360;29;20023;-91
2023/01/05 07:00:59;;;;;;;;;;;;;;;;;;4915713;29;19961;-90
2023/01/05 07:03:25;;;;;;;;;;;;;;;;;;4894943;29;20286;-92
2023/01/05 07:05:50;;;;;;;;;;;;;;;;;;4896070;29;19954;-90
2023/01/05 07:08:15;;;;;;;;;;;;;;;;;;4902961;29;20259;-91
2023/01/05 07:10:41;;;;;;;;;;;;;;;;;;4907752;29;19915;-91
2023/01/05 07:13:06;;;;;;;;;;;;;;;;;;5123454;23;19929;-90
2023/01/05 07:15:33;;;;;;;;;;;;;;;;;;4938772;28;19906;-92
2023/01/05 07:21:00;;;;;;;;;;;;;;;;;;5309573;23;19926;-90
2023/01/05 07:23:25;;;;;;;;;;;;;;;;;;5230672;23;20014;-90
2023/01/05 07:25:51;;;;;;;;;;;;;;;;;;4930105;29;19978;-93
2023/01/05 07:28:16;;;;;;;;;;;;;;;;;;4947130;29;19919;-92
2023/01/05 07:30:42;;;;;;;;;;;;;;;;;;4939178;29;19954;-91
2023/01/05 07:33:14;;;;;;;;;;;;;;;;;;4939981;29;19925;-92
2023/01/05 07:35:58;;;;;;;;;;;;;;;;;;5042333;23;19910;-89
2023/01/05 07:38:25;;;;;;;;;;;;;;;;;;4944617;29;19919;-89
2023/01/05 07:48:59;;;;;;;;;;;;;;;;;;5172286;23;19926;-91
2023/01/05 07:56:59;;;;;;;;;;;;;;;;;;5577689;23;19934;-91
2023/01/05 07:59:24;;;;;;;;;;;;;;;;;;4922582;29;19914;-92
2023/01/05 08:01:50;;;;;;;;;;;;;;;;;;4907172;29;20279;-91
2023/01/05 08:04:15;;;;;;;;;;;;;;;;;;4905584;29;19962;-92
2023/01/05 08:06:40;;;;;;;;;;;;;;;;;;4922504;29;20259;-93
2023/01/05 08:11:51;;;;;;;;;;;;;;;;;;4910544;29;19987;-89
2023/01/05 08:16:59;;;;;;;;;;;;;;;;;;5171266;23;19910;-91
2023/01/05 08:24:47;;;;;;;;;;;;;;;;;;5509456;23;19927;-91
2023/01/05 08:27:13;;;;;;;;;;;;;;;;;;4948803;29;19958;-92
2023/01/05 08:29:38;;;;;;;;;;;;;;;;;;4936645;29;19919;-90
2023/01/05 08:32:04;;;;;;;;;;;;;;;;;;4901376;28;19903;-89
2023/01/05 08:34:29;;;;;;;;;;;;;;;;;;5147878;23;19935;-89
2023/01/05 08:39:46;;;;;;;;;;;;;;;;;;5176052;23;19926;-88
2023/01/05 08:42:11;;;;;;;;;;;;;;;;;;5244424;23;20752;-86
2023/01/05 09:09:27;;;;;;;;;;;;;;;;;;5149101;23;19997;-93
2023/01/05 09:11:52;;;;;;;;;;;;;;;;;;4941346;29;19914;-91
2023/01/05 09:14:17;;;;;;;;;;;;;;;;;;5107359;23;20362;-89
2023/01/05 09:16:43;;;;;;;;;;;;;;;;;;4942843;28;19921;-89
2023/01/05 09:19:09;;;;;;;;;;;;;;;;;;5680697;23;19933;-90
2023/01/05 09:21:34;;;;;;;;;;;;;;;;;;4958135;28;20006;-93
2023/01/05 09:26:42;;;;;;;;;;;;;;;;;;5894303;23;19927;-92
2023/01/05 09:29:09;;;;;;;;;;;;;;;;;;4933023;29;20402;-93
2023/01/05 09:39:41;;;;;;;;;;;;;;;;;;5057942;23;19926;-92
2023/01/05 09:42:06;;;;;;;;;;;;;;;;;;4932536;29;19918;-90
2023/01/05 09:44:31;;;;;;;;;;;;;;;;;;4927020;29;19989;-93
2023/01/05 09:46:57;;;;;;;;;;;;;;;;;;4927947;29;19974;-92
2023/01/05 09:52:07;;;;;;;;;;;;;;;;;;5231353;23;19927;-93
2023/01/05 09:54:33;;;;;;;;;;;;;;;;;;4944610;29;20008;-94
2023/01/05 09:56:59;;;;;;;;;;;;;;;;;;4927543;29;19915;-91
2023/01/05 09:59:24;;;;;;;;;;;;;;;;;;4922165;29;19942;-92
2023/01/05 10:01:50;;;;;;;;;;;;;;;;;;4892574;29;20391;-81
2023/01/05 10:04:15;;;;;;;;;;;;;;;;;;4952462;29;19942;-81
2023/01/05 10:06:41;;;;;;;;;;;;;;;;;;4953742;29;19970;-81
2023/01/05 10:09:06;;;;;;;;;;;;;;;;;;4946203;29;19914;-78
2023/01/05 10:14:16;;;;;;;;;;;;;;;;;;4938208;29;19914;-93
2023/01/05 10:16:42;;;;;;;;;;;;;;;;;;4906794;29;19915;-94
2023/01/05 10:19:07;;;;;;;;;;;;;;;;;;4919418;29;19958;-92
2023/01/05 10:21:32;;;;;;;;;;;;;;;;;;4921927;29;19922;-93
2023/01/05 10:23:58;;;;;;;;;;;;;;;;;;4908158;29;19960;-93
2023/01/05 10:26:23;;;;;;;;;;;;;;;;;;4939581;29;20010;-92
2023/01/05 10:28:49;;;;;;;;;;;;;;;;;;4909528;29;19937;-89
2023/01/05 10:31:14;;;;;;;;;;;;;;;;;;4923620;29;20378;-91
2023/01/05 10:33:40;;;;;;;;;;;;;;;;;;4914554;29;20374;-91
2023/01/05 10:36:05;;;;;;;;;;;;;;;;;;4908624;29;19925;-91
2023/01/05 10:38:30;;;;;;;;;;;;;;;;;;4905014;29;19922;-93
2023/01/05 10:40:56;;;;;;;;;;;;;;;;;;4925396;29;20278;-92
2023/01/05 10:43:21;;;;;;;;;;;;;;;;;;4917740;29;19911;-93
2023/01/05 10:45:47;;;;;;;;;;;;;;;;;;5437891;23;19911;-90
2023/01/05 10:48:15;;;;;;;;;;;;;;;;;;5776650;23;19953;-92
2023/01/05 10:50:43;;;;;;;;;;;;;;;;;;4907370;29;19918;-96
2023/01/05 10:53:09;;;;;;;;;;;;;;;;;;4917239;29;20281;-95
2023/01/05 10:55:37;;;;;;;;;;;;;;;;;;4915139;29;19957;-94
2023/01/05 10:58:11;;;;;;;;;;;;;;;;;;4918677;29;19992;-94
2023/01/05 11:00:42;;;;;;;;;;;;;;;;;;4920902;29;19925;-93
2023/01/05 11:16:48;;;;;;;;;;;;;;;;;;5662784;23;19970;-94
2023/01/05 11:19:14;;;;;;;;;;;;;;;;;;4938100;28;19943;-94
2023/01/05 11:21:43;;;;;;;;;;;;;;;;;;5161301;23;19926;-93
2023/01/05 11:24:12;;;;;;;;;;;;;;;;;;4904935;29;20013;-95
2023/01/05 11:26:38;;;;;;;;;;;;;;;;;;4896296;29;20004;-94
2023/01/05 11:29:07;;;;;;;;;;;;;;;;;;4891831;29;19935;-92
2023/01/05 11:31:32;;;;;;;;;;;;;;;;;;4871213;29;19915;-94
2023/01/05 11:33:59;;;;;;;;;;;;;;;;;;4894300;29;19910;-89
2023/01/05 11:36:37;;;;;;;;;;;;;;;;;;4870482;29;19935;-94
2023/01/05 11:42:30;;;;;;;;;;;;;;;;;;4891178;29;19920;-90
2023/01/05 11:44:56;;;;;;;;;;;;;;;;;;4883911;29;19923;-87
2023/01/05 11:47:21;;;;;;;;;;;;;;;;;;4885256;29;19962;-88
2023/01/05 11:49:47;;;;;;;;;;;;;;;;;;4896933;29;19931;-90
2023/01/05 11:52:12;;;;;;;;;;;;;;;;;;4897454;29;19920;-88
2023/01/05 11:54:39;;;;;;;;;;;;;;;;;;4878376;29;19928;-91
2023/01/05 11:57:04;;;;;;;;;;;;;;;;;;4884449;29;19967;-90
2023/01/05 11:59:29;;;;;;;;;;;;;;;;;;4880116;29;19924;-90
2023/01/05 12:01:55;;;;;;;;;;;;;;;;;;4878620;29;19979;-89
2023/01/05 12:04:20;;;;;;;;;;;;;;;;;;4891663;29;19948;-90
2023/01/05 12:06:46;;;;;;;;;;;;;;;;;;4883957;29;19940;-86
2023/01/05 12:09:11;;;;;;;;;;;;;;;;;;4885391;29;19915;-89
2023/01/05 12:11:37;;;;;;;;;;;;;;;;;;4882619;29;19922;-91
2023/01/05 12:14:02;;;;;;;;;;;;;;;;;;4880474;29;19927;-89
2023/01/05 12:16:28;;;;;;;;;;;;;;;;;;4884480;29;19932;-90
2023/01/05 12:18:53;;;;;;;;;;;;;;;;;;4886358;29;19915;-90
2023/01/05 12:21:19;;;;;;;;;;;;;;;;;;4909144;29;19954;-90
2023/01/05 12:23:44;;;;;;;;;;;;;;;;;;4907124;29;19911;-92
2023/01/05 12:26:10;;;;;;;;;;;;;;;;;;4903014;29;20018;-90
2023/01/05 12:28:35;;;;;;;;;;;;;;;;;;4919439;29;19943;-92
2023/01/05 12:31:00;;;;;;;;;;;;;;;;;;4903199;29;20022;-92
2023/01/05 12:33:26;;;;;;;;;;;;;;;;;;4903831;29;19937;-95
2023/01/05 12:35:51;;;;;;;;;;;;;;;;;;4915290;29;19950;-93
2023/01/05 12:38:17;;;;;;;;;;;;;;;;;;4917837;29;20371;-94
2023/01/05 12:40:42;;;;;;;;;;;;;;;;;;4908912;29;20726;-94
2023/01/05 12:43:08;;;;;;;;;;;;;;;;;;4903518;29;19915;-95
2023/01/05 12:45:33;;;;;;;;;;;;;;;;;;4877962;29;19923;-91
2023/01/05 12:47:59;;;;;;;;;;;;;;;;;;4910092;29;19970;-91
2023/01/05 12:50:24;;;;;;;;;;;;;;;;;;4889892;29;19974;-94
2023/01/05 12:52:50;;;;;;;;;;;;;;;;;;4904805;29;19925;-94
2023/01/05 12:55:15;;;;;;;;;;;;;;;;;;4917176;29;19919;-92
2023/01/05 12:57:52;;;;;;;;;;;;;;;;;;4903498;29;19916;-91
2023/01/05 13:00:18;;;;;;;;;;;;;;;;;;4913842;29;20420;-91
2023/01/05 13:02:43;;;;;;;;;;;;;;;;;;4916359;29;19915;-92
2023/01/05 13:05:09;;;;;;;;;;;;;;;;;;4898376;29;19922;-91
2023/01/05 13:07:34;;;;;;;;;;;;;;;;;;4893683;29;20374;-92
2023/01/05 13:10:00;;;;;;;;;;;;;;;;;;4896298;29;20283;-92
2023/01/05 13:12:25;;;;;;;;;;;;;;;;;;4895511;29;19915;-92
2023/01/05 13:14:52;;;;;;;;;;;;;;;;;;4900533;29;20318;-89
2023/01/05 13:17:17;;;;;;;;;;;;;;;;;;4888331;29;19988;-92
2023/01/05 13:19:43;;;;;;;;;;;;;;;;;;4892786;29;19970;-91
2023/01/05 13:22:08;;;;;;;;;;;;;;;;;;4920777;29;20275;-91
2023/01/05 13:24:34;;;;;;;;;;;;;;;;;;4868459;29;20298;-92
2023/01/05 13:26:59;;;;;;;;;;;;;;;;;;4862190;29;19916;-92
2023/01/05 13:29:27;;;;;;;;;;;;;;;;;;4899175;29;20426;-91
2023/01/05 13:31:53;;;;;;;;;;;;;;;;;;4900323;29;19915;-93
2023/01/05 13:34:18;;;;;;;;;;;;;;;;;;4882311;29;19920;-93
2023/01/05 13:36:44;;;;;;;;;;;;;;;;;;4910212;29;19956;-92
2023/01/05 13:39:11;;;;;;;;;;;;;;;;;;4866422;29;19911;-92
2023/01/05 13:41:36;;;;;;;;;;;;;;;;;;4885422;29;20359;-92
2023/01/05 13:44:02;;;;;;;;;;;;;;;;;;4896946;29;19926;-90
2023/01/05 13:46:29;;;;;;;;;;;;;;;;;;4891752;29;19919;-91
2023/01/05 13:48:54;;;;;;;;;;;;;;;;;;4917072;29;19961;-91
2023/01/05 13:51:20;;;;;;;;;;;;;;;;;;4900022;29;19915;-89
2023/01/05 13:53:45;;;;;;;;;;;;;;;;;;4899770;29;19965;-90
2023/01/05 13:56:10;;;;;;;;;;;;;;;;;;4869097;29;20018;-93
2023/01/05 13:58:36;;;;;;;;;;;;;;;;;;4884783;29;19950;-91
2023/01/05 14:01:01;;;;;;;;;;;;;;;;;;4885328;29;19915;-93
2023/01/05 14:03:27;;;;;;;;;;;;;;;;;;4901315;29;20286;-92
2023/01/05 14:05:53;;;;;;;;;;;;;;;;;;4876356;29;19919;-92
2023/01/05 14:08:18;;;;;;;;;;;;;;;;;;4885332;29;19930;-91
2023/01/05 14:10:43;;;;;;;;;;;;;;;;;;4870526;29;19911;-94
2023/01/05 14:13:09;;;;;;;;;;;;;;;;;;4873552;29;19921;-95
2023/01/05 14:15:36;;;;;;;;;;;;;;;;;;4887363;29;19911;-89
2023/01/05 14:18:01;;;;;;;;;;;;;;;;;;4897700;29;19915;-93
2023/01/05 14:20:29;;;;;;;;;;;;;;;;;;4882542;29;19966;-94
2023/01/05 14:22:55;;;;;;;;;;;;;;;;;;4898660;29;19923;-92
2023/01/05 14:25:20;;;;;;;;;;;;;;;;;;4882347;29;19915;-92
2023/01/05 14:27:46;;;;;;;;;;;;;;;;;;4883291;29;19923;-93
2023/01/05 14:30:11;;;;;;;;;;;;;;;;;;4884084;29;19911;-93
2023/01/05 14:32:36;;;;;;;;;;;;;;;;;;4883406;29;20380;-93
2023/01/05 14:35:02;;;;;;;;;;;;;;;;;;4897145;29;19974;-94
2023/01/05 14:37:27;;;;;;;;;;;;;;;;;;4882119;29;19915;-92
2023/01/05 14:39:53;;;;;;;;;;;;;;;;;;4882880;29;19915;-93
2023/01/05 14:42:19;;;;;;;;;;;;;;;;;;4886761;29;19916;-92
2023/01/05 14:44:44;;;;;;;;;;;;;;;;;;4901870;29;19915;-92
2023/01/05 14:47:10;;;;;;;;;;;;;;;;;;4901588;29;20391;-92
2023/01/05 14:49:35;;;;;;;;;;;;;;;;;;4885802;29;20366;-92
2023/01/05 14:52:01;;;;;;;;;;;;;;;;;;4886008;29;19923;-93
2023/01/05 14:54:26;;;;;;;;;;;;;;;;;;4901655;29;19922;-94
2023/01/05 14:56:52;;;;;;;;;;;;;;;;;;4885714;29;19919;-94
2023/01/05 14:59:18;;;;;;;;;;;;;;;;;;4887972;29;20274;-93
2023/01/05 15:01:44;;;;;;;;;;;;;;;;;;4889463;29;20007;-94
2023/01/05 15:04:09;;;;;;;;;;;;;;;;;;4891242;29;20328;-94
2023/01/05 15:06:35;;;;;;;;;;;;;;;;;;4893947;29;20287;-94
2023/01/05 15:09:00;;;;;;;;;;;;;;;;;;4898033;29;20335;-94
2023/01/05 15:11:26;;;;;;;;;;;;;;;;;;4888967;29;20573;-96
2023/01/05 15:14:30;;;;;;;;;;;;;;;;;;4890137;29;19926;-96
2023/01/05 15:16:37;;;;;;;;;;;;;;;;;;4908430;29;19907;-95
2023/01/05 15:21:35;;;;;;;;;;;;;;;;;;4906303;29;19953;-86
2023/01/05 15:24:01;;;;;;;;;;;;;;;;;;4943505;29;19911;-87
2023/01/05 15:26:26;;;;;;;;;;;;;;;;;;4897356;29;19915;-86
2023/01/05 15:28:51;;;;;;;;;;;;;;;;;;4893515;29;19993;-87
2023/01/05 15:31:17;;;;;;;;;;;;;;;;;;4916577;29;19916;-88
2023/01/05 15:33:42;;;;;;;;;;;;;;;;;;4900834;29;20342;-88
2023/01/05 15:36:08;;;;;;;;;;;;;;;;;;4931387;29;20407;-89
2023/01/05 15:38:33;;;;;;;;;;;;;;;;;;4900243;29;19916;-87
2023/01/05 15:40:59;;;;;;;;;;;;;;;;;;4899244;29;20379;-89
2023/01/05 15:43:24;;;;;;;;;;;;;;;;;;4883882;29;20295;-89
2023/01/05 15:45:52;;;;;;;;;;;;;;;;;;4899704;29;20318;-88
2023/01/05 15:48:17;;;;;;;;;;;;;;;;;;4899296;29;20375;-89
2023/01/05 15:50:43;;;;;;;;;;;;;;;;;;4932276;29;19930;-87
2023/01/05 15:53:08;;;;;;;;;;;;;;;;;;4914144;29;20284;-87
2023/01/05 15:55:33;;;;;;;;;;;;;;;;;;4929843;29;20443;-88
2023/01/05 15:57:59;;;;;;;;;;;;;;;;;;4914014;29;19915;-87
2023/01/05 16:00:24;;;;;;;;;;;;;;;;;;4899060;29;19954;-88
2023/01/05 16:02:50;;;;;;;;;;;;;;;;;;4883282;29;19922;-87
2023/01/05 16:05:15;;;;;;;;;;;;;;;;;;4899243;29;19916;-88
2023/01/05 16:07:41;;;;;;;;;;;;;;;;;;4914927;29;19919;-86
2023/01/05 16:10:06;;;;;;;;;;;;;;;;;;4899170;29;19923;-88
2023/01/05 16:12:32;;;;;;;;;;;;;;;;;;4907119;29;20363;-89
2023/01/05 16:15:00;;;;;;;;;;;;;;;;;;4865062;29;19971;-87
2023/01/05 16:17:25;;;;;;;;;;;;;;;;;;4895874;29;19927;-88
2023/01/05 16:19:50;;;;;;;;;;;;;;;;;;4895562;29;19919;-88
2023/01/05 16:22:16;;;;;;;;;;;;;;;;;;4865115;29;19984;-88
2023/01/05 16:24:41;;;;;;;;;;;;;;;;;;4879326;29;20379;-89
2023/01/05 16:27:07;;;;;;;;;;;;;;;;;;4881626;29;20356;-89
2023/01/05 16:29:32;;;;;;;;;;;;;;;;;;4900716;29;19927;-88
2023/01/05 16:31:58;;;;;;;;;;;;;;;;;;4886214;29;20454;-89
2023/01/05 16:34:26;;;;;;;;;;;;;;;;;;4915148;29;19922;-88
2023/01/05 16:36:51;;;;;;;;;;;;;;;;;;4914908;29;19962;-89
2023/01/05 16:39:17;;;;;;;;;;;;;;;;;;4884278;29;19919;-87
2023/01/05 16:42:30;;;;;;;;;;;;;;;;;;4899493;29;20010;-89
2023/01/05 16:44:31;;;;;;;;;;;;;;;;;;4884066;29;19919;-88
2023/01/05 16:46:57;;;;;;;;;;;;;;;;;;4900101;29;19916;-88
2023/01/05 16:49:22;;;;;;;;;;;;;;;;;;4915632;29;19983;-89
2023/01/05 16:51:48;;;;;;;;;;;;;;;;;;4884818;29;20286;-88
2023/01/05 16:54:13;;;;;;;;;;;;;;;;;;4884322;29;20331;-89
2023/01/05 16:56:39;;;;;;;;;;;;;;;;;;4901494;29;19945;-88
2023/01/05 16:59:04;;;;;;;;;;;;;;;;;;4916599;29;19912;-88
2023/01/05 17:01:30;;;;;;;;;;;;;;;;;;4886113;29;20248;-88
2023/01/05 17:03:56;;;;;;;;;;;;;;;;;;4870649;29;20014;-87
2023/01/05 17:06:22;;;;;;;;;;;;;;;;;;4866182;29;19955;-88
2023/01/05 17:08:47;;;;;;;;;;;;;;;;;;4868834;29;19924;-88
2023/01/05 17:11:16;;;;;;;;;;;;;;;;;;4868165;29;19915;-89
2023/01/05 17:13:44;;;;;;;;;;;;;;;;;;4898490;29;19919;-88
2023/01/05 17:16:09;;;;;;;;;;;;;;;;;;4884271;29;19979;-88
2023/01/05 17:18:35;;;;;;;;;;;;;;;;;;4885702;29;19940;-85
2023/01/05 17:21:00;;;;;;;;;;;;;;;;;;4895926;29;20296;-83
2023/01/05 17:23:26;;;;;;;;;;;;;;;;;;4896315;29;19924;-85
2023/01/05 17:25:51;;;;;;;;;;;;;;;;;;4895853;29;19919;-87
2023/01/05 17:28:17;;;;;;;;;;;;;;;;;;4896073;29;19920;-86
2023/01/05 17:30:42;;;;;;;;;;;;;;;;;;4895815;29;19951;-85
2023/01/05 17:33:08;;;;;;;;;;;;;;;;;;4879094;29;19995;-84
2023/01/05 17:35:33;;;;;;;;;;;;;;;;;;4878328;29;19920;-84
2023/01/05 17:37:59;;;;;;;;;;;;;;;;;;4863488;29;19923;-84
2023/01/05 17:40:24;;;;;;;;;;;;;;;;;;4880709;29;19916;-84
2023/01/05 17:42:50;;;;;;;;;;;;;;;;;;4898172;29;20412;-84
2023/01/05 17:45:15;;;;;;;;;;;;;;;;;;4894300;29;19955;-83
2023/01/05 17:47:41;;;;;;;;;;;;;;;;;;4895103;29;19916;-84
2023/01/05 17:50:06;;;;;;;;;;;;;;;;;;4897695;29;19927;-83
2023/01/05 17:52:31;;;;;;;;;;;;;;;;;;4900271;29;19915;-84
2023/01/05 17:54:57;;;;;;;;;;;;;;;;;;4899445;29;20384;-82
2023/01/05 17:57:22;;;;;;;;;;;;;;;;;;4891486;29;20315;-83
2023/01/05 17:59:48;;;;;;;;;;;;;;;;;;4907193;29;19922;-82
2023/01/05 18:02:13;;;;;;;;;;;;;;;;;;4894483;29;20012;-82
2023/01/05 18:04:39;;;;;;;;;;;;;;;;;;4901941;29;19919;-81
2023/01/05 18:07:04;;;;;;;;;;;;;;;;;;4893283;29;19916;-82
2023/01/05 18:09:30;;;;;;;;;;;;;;;;;;4906095;29;20387;-81
2023/01/05 18:11:55;;;;;;;;;;;;;;;;;;4906462;29;19944;-83
2023/01/05 18:14:20;;;;;;;;;;;;;;;;;;4904428;29;19916;-83
2023/01/05 18:16:46;;;;;;;;;;;;;;;;;;4921346;29;20461;-81
2023/01/05 18:19:12;;;;;;;;;;;;;;;;;;4935775;29;19915;-81
2023/01/05 18:21:37;;;;;;;;;;;;;;;;;;4919116;29;19946;-82
2023/01/05 18:24:02;;;;;;;;;;;;;;;;;;4918923;29;19915;-83
2023/01/05 18:26:28;;;;;;;;;;;;;;;;;;4901224;29;19963;-83
2023/01/05 18:28:54;;;;;;;;;;;;;;;;;;4916138;29;20013;-84
2023/01/05 18:31:19;;;;;;;;;;;;;;;;;;4902188;29;19916;-82
2023/01/05 18:33:44;;;;;;;;;;;;;;;;;;4901542;29;19934;-83
2023/01/05 18:36:12;;;;;;;;;;;;;;;;;;4915495;29;19919;-82
2023/01/05 18:38:37;;;;;;;;;;;;;;;;;;4902744;29;19921;-81
2023/01/05 18:41:03;;;;;;;;;;;;;;;;;;4900649;29;20014;-80
2023/01/05 18:43:28;;;;;;;;;;;;;;;;;;4900368;29;19951;-81
2023/01/05 18:45:54;;;;;;;;;;;;;;;;;;4900202;29;20398;-82
2023/01/05 18:48:20;;;;;;;;;;;;;;;;;;4884546;29;20422;-82
2023/01/05 18:50:49;;;;;;;;;;;;;;;;;;4901175;29;20363;-80
2023/01/05 18:53:15;;;;;;;;;;;;;;;;;;4899357;29;19916;-80
2023/01/05 18:55:40;;;;;;;;;;;;;;;;;;4915975;29;19920;-80
2023/01/05 18:58:06;;;;;;;;;;;;;;;;;;4900850;29;20371;-81
2023/01/05 19:00:32;;;;;;;;;;;;;;;;;;4900195;29;19915;-82
2023/01/05 19:02:57;;;;;;;;;;;;;;;;;;4914846;29;19922;-80